Time;durP1;ratioP1;P1;durP2;ratioP2;P2;SDS_P1;SDS_P2;PMS_P1;PMS_P2;Temp;Humidity;BMP_temperature;BMP_pressure;BME280_temperature;BME280_humidity;BME280_pressure;Samples;Min_cycle;Max_cycle;Signal;HPM_P1;HPM_P2
2023/03/11 00:01:48;;;;;;;2.47;1.60;;;18.40;37.10;;;;;;4972702;28;20255;-73
2023/03/11 00:04:15;;;;;;;1.85;1.42;;;18.40;37.10;;;;;;4972397;28;20201;-74
2023/03/11 00:06:42;;;;;;;2.25;1.58;;;18.40;37.10;;;;;;4971830;28;20274;-73
2023/03/11 00:09:11;;;;;;;1.75;1.38;;;18.40;37.10;;;;;;4971773;28;20374;-74
2023/03/11 00:11:38;;;;;;;1.83;1.42;;;18.40;37.10;;;;;;4972694;28;20293;-74
2023/03/11 00:14:05;;;;;;;1.83;1.23;;;18.40;37.20;;;;;;4975116;28;20194;-74
2023/03/11 00:16:32;;;;;;;2.03;1.60;;;18.40;37.20;;;;;;4976560;28;20219;-74
2023/03/11 00:18:59;;;;;;;2.40;1.70;;;18.30;37.10;;;;;;4976151;28;20714;-74
2023/03/11 00:21:26;;;;;;;3.05;1.40;;;18.30;37.10;;;;;;4976598;28;20307;-73
2023/03/11 00:23:53;;;;;;;2.30;1.25;;;18.30;37.80;;;;;;4975980;28;20195;-73
2023/03/11 00:26:22;;;;;;;1.85;1.35;;;18.30;37.10;;;;;;4976041;28;20640;-73
2023/03/11 00:28:49;;;;;;;3.92;1.63;;;18.30;37.20;;;;;;4976006;28;20195;-73
2023/03/11 00:31:16;;;;;;;1.52;1.33;;;18.30;37.20;;;;;;4976729;28;20215;-74
2023/03/11 00:33:43;;;;;;;1.88;1.40;;;18.30;37.20;;;;;;4976486;28;20187;-74
2023/03/11 00:36:21;;;;;;;1.23;1.10;;;18.30;37.20;;;;;;4976282;28;20190;-74
2023/03/11 00:38:48;;;;;;;1.88;1.35;;;18.30;37.30;;;;;;4976542;28;20288;-74
2023/03/11 00:41:15;;;;;;;1.38;1.27;;;18.30;37.30;;;;;;4975729;28;20223;-74
2023/03/11 00:43:44;;;;;;;1.83;1.42;;;18.30;37.40;;;;;;4975955;28;20304;-73
2023/03/11 00:46:11;;;;;;;1.55;1.30;;;18.30;37.40;;;;;;4995011;28;20210;-74
2023/03/11 00:48:38;;;;;;;2.47;1.30;;;18.30;37.40;;;;;;4991253;28;20214;-74
2023/03/11 00:51:07;;;;;;;2.05;1.23;;;18.30;37.30;;;;;;4976221;28;20191;-74
2023/03/11 00:53:34;;;;;;;1.35;1.20;;;18.30;37.40;;;;;;4976322;28;20203;-74
2023/03/11 00:56:07;;;;;;;1.38;1.15;;;18.20;37.30;;;;;;4975375;28;20247;-74
2023/03/11 00:58:34;;;;;;;2.13;1.33;;;18.20;37.30;;;;;;4975866;28;20309;-74
2023/03/11 01:01:08;;;;;;;1.50;1.20;;;18.20;37.40;;;;;;4974968;28;20195;-74
2023/03/11 01:03:35;;;;;;;1.92;1.30;;;18.20;37.40;;;;;;4976126;28;20249;-74
2023/03/11 01:06:02;;;;;;;1.58;1.30;;;18.20;37.40;;;;;;4975922;28;20245;-73
2023/03/11 01:08:30;;;;;;;1.35;1.20;;;18.20;37.50;;;;;;4975606;28;20226;-74
2023/03/11 01:10:57;;;;;;;1.35;1.00;;;18.20;37.40;;;;;;4974160;28;20195;-74
2023/03/11 01:13:25;;;;;;;2.08;1.08;;;18.20;37.50;;;;;;4975950;28;20199;-73
2023/03/11 01:15:52;;;;;;;1.25;1.10;;;18.20;37.50;;;;;;4975560;28;20226;-74
2023/03/11 01:18:21;;;;;;;1.63;1.10;;;18.20;37.50;;;;;;4975548;28;20700;-74
2023/03/11 01:20:49;;;;;;;1.45;1.00;;;18.20;37.50;;;;;;4975463;28;20657;-74
2023/03/11 01:23:17;;;;;;;1.40;1.13;;;18.10;37.50;;;;;;4975393;28;20242;-74
2023/03/11 01:25:45;;;;;;;1.30;1.10;;;18.20;37.60;;;;;;4975028;28;20645;-74
2023/03/11 01:28:12;;;;;;;2.95;1.25;;;18.10;37.50;;;;;;4975794;28;20222;-74
2023/03/11 01:30:41;;;;;;;3.20;1.50;;;18.20;37.60;;;;;;4975339;28;20549;-74
2023/03/11 01:33:13;;;;;;;1.25;0.88;;;18.10;37.50;;;;;;4975218;28;20281;-74
2023/03/11 01:35:42;;;;;;;1.83;1.23;;;18.10;37.50;;;;;;4975625;28;20195;-74
2023/03/11 01:38:10;;;;;;;1.88;1.10;;;18.10;37.50;;;;;;4975265;28;20708;-74
2023/03/11 01:40:39;;;;;;;1.88;1.25;;;18.10;37.50;;;;;;4974766;28;20265;-74
2023/03/11 01:43:27;;;;;;;1.38;1.27;;;18.20;37.70;;;;;;4975596;28;20265;-74
2023/03/11 01:46:11;;;;;;;1.85;1.17;;;18.10;37.60;;;;;;4975288;28;20308;-74
2023/03/11 01:48:38;;;;;;;1.20;1.10;;;18.10;37.60;;;;;;4975363;28;20245;-74
2023/03/11 01:51:07;;;;;;;2.13;1.40;;;18.10;37.60;;;;;;4975193;28;20600;-74
2023/03/11 01:53:35;;;;;;;1.42;1.25;;;18.10;37.70;;;;;;4975203;28;20258;-74
2023/03/11 01:56:04;;;;;;;1.38;1.13;;;18.10;37.70;;;;;;4974592;28;20195;-74
2023/03/11 01:58:35;;;;;;;1.88;1.38;;;18.10;37.70;;;;;;4975116;28;20215;-74
2023/03/11 02:01:03;;;;;;;2.85;1.20;;;18.10;37.70;;;;;;4975065;28;20314;-73
2023/03/11 02:03:33;;;;;;;1.15;1.05;;;18.10;37.70;;;;;;4974685;28;20657;-74
2023/03/11 02:06:02;;;;;;;2.53;1.25;;;18.10;37.70;;;;;;4974904;28;20246;-74
2023/03/11 02:08:33;;;;;;;1.48;1.27;;;18.10;37.80;;;;;;4974761;28;20265;-74
2023/03/11 02:11:02;;;;;;;1.17;1.08;;;18.00;37.70;;;;;;4973869;28;20203;-73
2023/03/11 02:13:30;;;;;;;1.45;1.10;;;18.10;38.30;;;;;;4974791;28;20199;-74
2023/03/11 02:15:59;;;;;;;2.38;1.30;;;18.10;37.80;;;;;;4973553;28;20254;-74
2023/03/11 02:18:26;;;;;;;2.33;1.20;;;18.00;37.70;;;;;;4974486;28;20309;-74
2023/03/11 02:21:01;;;;;;;1.92;1.30;;;18.00;37.70;;;;;;4974668;28;20226;-73
2023/03/11 02:23:36;;;;;;;1.60;1.00;;;18.00;37.70;;;;;;4974384;28;20198;-74
2023/03/11 02:26:13;;;;;;;3.03;1.35;;;18.00;37.80;;;;;;4973625;28;20612;-74
2023/03/11 02:28:43;;;;;;;1.15;0.90;;;18.00;37.80;;;;;;4973186;28;20191;-74
2023/03/11 02:31:11;;;;;;;1.30;1.20;;;18.00;37.80;;;;;;4974484;28;20190;-74
2023/03/11 02:33:38;;;;;;;2.95;1.20;;;18.00;37.80;;;;;;4974529;28;20199;-73
2023/03/11 02:36:06;;;;;;;1.20;1.10;;;18.00;37.80;;;;;;4973758;28;20613;-73
2023/03/11 02:38:33;;;;;;;1.30;1.20;;;18.00;37.80;;;;;;4974277;28;20321;-73
2023/03/11 02:41:01;;;;;;;1.65;1.20;;;18.00;37.80;;;;;;4973579;28;20195;-73
2023/03/11 02:43:35;;;;;;;2.17;1.20;;;18.00;37.80;;;;;;4974037;28;20199;-73
2023/03/11 02:46:06;;;;;;;1.20;1.10;;;18.00;37.90;;;;;;4974368;28;20189;-74
2023/03/11 02:48:35;;;;;;;2.00;1.13;;;17.90;37.80;;;;;;4974211;28;20273;-73
2023/03/11 02:51:03;;;;;;;1.15;1.05;;;17.90;37.80;;;;;;4973745;28;20191;-73
2023/03/11 02:53:35;;;;;;;1.70;1.30;;;17.90;37.80;;;;;;4973728;28;20600;-73
2023/03/11 02:56:02;;;;;;;2.35;1.30;;;17.90;37.80;;;;;;4973009;28;20202;-73
2023/03/11 02:58:29;;;;;;;1.25;1.10;;;17.90;37.80;;;;;;4974324;28;20620;-74
2023/03/11 03:00:56;;;;;;;2.63;1.20;;;17.90;37.80;;;;;;4973757;28;20195;-73
2023/03/11 03:03:25;;;;;;;2.40;1.23;;;17.90;37.90;;;;;;4974044;28;20713;-73
2023/03/11 03:05:52;;;;;;;1.23;1.13;;;17.90;37.80;;;;;;4973921;28;20246;-73
2023/03/11 03:08:19;;;;;;;2.08;1.20;;;17.90;37.90;;;;;;4973897;28;20227;-73
2023/03/11 03:10:46;;;;;;;1.52;1.25;;;17.90;37.90;;;;;;4973054;28;20608;-73
2023/03/11 03:13:13;;;;;;;2.20;1.13;;;17.90;37.90;;;;;;4973520;28;20262;-73
2023/03/11 03:15:40;;;;;;;1.90;1.45;;;17.90;37.90;;;;;;4973456;28;20195;-73
2023/03/11 03:18:07;;;;;;;1.33;1.10;;;17.90;37.90;;;;;;4973651;28;20269;-73
2023/03/11 03:20:36;;;;;;;2.67;1.38;;;17.90;38.00;;;;;;4973455;28;20654;-74
2023/03/11 03:23:03;;;;;;;2.45;1.30;;;17.90;38.00;;;;;;4973856;28;20636;-73
2023/03/11 03:25:31;;;;;;;1.95;1.20;;;17.90;38.00;;;;;;4973166;28;20195;-73
2023/03/11 15:10:11;;;;;;;6.45;1.50;;;19.90;41.20;;;;;;4955736;28;20245;-72
2023/03/11 15:12:42;;;;;;;8.48;1.30;;;20.00;41.30;;;;;;4977587;28;20212;-71
2023/03/11 15:15:24;;;;;;;3.10;1.40;;;20.00;41.40;;;;;;4969495;28;20538;-72
2023/03/11 15:17:59;;;;;;;2.45;1.67;;;20.00;41.30;;;;;;4974173;28;20202;-72
2023/03/11 15:20:40;;;;;;;3.38;1.50;;;20.00;41.30;;;;;;4972504;28;20244;-70
2023/03/11 15:23:20;;;;;;;2.10;1.42;;;20.10;41.40;;;;;;4968166;28;20248;-71
2023/03/11 15:25:51;;;;;;;1.83;1.70;;;20.10;41.50;;;;;;4978111;28;20291;-71
2023/03/11 15:28:24;;;;;;;1.42;1.33;;;20.10;41.40;;;;;;4985105;28;20205;-72
2023/03/11 15:30:51;;;;;;;4.88;1.45;;;20.10;41.40;;;;;;4903937;28;20509;-71
2023/03/11 15:33:23;;;;;;;9.00;1.48;;;20.10;41.50;;;;;;4978244;28;20213;-71
2023/03/11 15:35:50;;;;;;;3.45;1.60;;;20.10;41.50;;;;;;4984301;28;20221;-71
2023/03/11 15:38:24;;;;;;;1.90;1.25;;;20.20;41.60;;;;;;4951233;28;20272;-71
2023/03/11 15:40:59;;;;;;;4.22;1.67;;;20.20;41.60;;;;;;4982625;28;20520;-70
2023/03/11 15:43:31;;;;;;;1.48;1.30;;;20.20;42.00;;;;;;4988770;28;20224;-72
2023/03/11 15:46:01;;;;;;;1.45;1.15;;;20.30;41.90;;;;;;4992278;28;20783;-70
2023/03/11 15:48:38;;;;;;;1.77;1.40;;;20.30;41.80;;;;;;4984556;28;20252;-72
2023/03/11 15:51:14;;;;;;;2.45;1.35;;;20.30;41.70;;;;;;4989822;28;20221;-72
2023/03/11 15:53:43;;;;;;;3.08;1.55;;;20.30;41.80;;;;;;4980830;28;20213;-71
2023/03/11 15:56:21;;;;;;;2.00;1.60;;;20.30;41.70;;;;;;4973348;28;20240;-72
2023/03/11 15:58:52;;;;;;;4.38;1.50;;;20.30;41.60;;;;;;4990306;28;20202;-70
2023/03/11 16:01:22;;;;;;;1.95;1.48;;;20.30;41.60;;;;;;4926700;28;20304;-72
2023/03/11 16:03:50;;;;;;;3.58;1.40;;;20.30;41.60;;;;;;4992343;28;20211;-72
2023/03/11 16:06:17;;;;;;;2.15;1.30;;;20.20;41.60;;;;;;4992554;28;20794;-72
2023/03/11 16:08:44;;;;;;;3.15;1.42;;;20.20;41.60;;;;;;4991859;28;20198;-72
2023/03/11 16:11:14;;;;;;;1.40;1.30;;;20.30;41.60;;;;;;4982543;28;20245;-71
2023/03/11 16:13:41;;;;;;;4.38;1.75;;;20.30;41.60;;;;;;4984526;28;20210;-71
2023/03/11 16:16:14;;;;;;;1.55;1.40;;;20.30;41.60;;;;;;4989555;28;20225;-71
2023/03/11 16:18:41;;;;;;;3.22;1.42;;;20.30;41.60;;;;;;4988965;28;20198;-70
2023/03/11 16:21:14;;;;;;;2.28;1.52;;;20.30;42.00;;;;;;4989100;28;20259;-71
2023/03/11 16:23:41;;;;;;;3.72;1.40;;;20.30;42.00;;;;;;4989750;28;20253;-71
2023/03/11 16:26:11;;;;;;;1.85;1.63;;;20.30;42.00;;;;;;4989135;28;20538;-70
2023/03/11 16:28:40;;;;;;;2.70;1.42;;;20.30;41.90;;;;;;4990914;28;20683;-69
2023/03/11 16:31:08;;;;;;;4.15;1.52;;;20.30;41.80;;;;;;4991802;28;20237;-70
2023/03/11 16:33:35;;;;;;;2.08;1.60;;;20.30;41.90;;;;;;4990605;28;20198;-70
2023/03/11 16:36:03;;;;;;;3.15;1.38;;;20.30;41.90;;;;;;4992813;28;20620;-70
2023/03/11 16:38:30;;;;;;;1.98;1.77;;;20.30;41.80;;;;;;4986372;28;20570;-71
2023/03/11 16:40:59;;;;;;;2.15;1.40;;;20.30;41.90;;;;;;4992678;28;20237;-71
2023/03/11 16:43:27;;;;;;;1.45;1.35;;;20.30;41.90;;;;;;4992730;28;20264;-70
2023/03/11 16:45:56;;;;;;;1.63;1.52;;;20.30;41.90;;;;;;4989401;28;20715;-70
2023/03/11 16:48:24;;;;;;;2.08;1.63;;;20.30;41.90;;;;;;4986278;28;20680;-70
2023/03/11 16:50:51;;;;;;;2.60;2.00;;;20.30;41.90;;;;;;4992841;28;20558;-70
2023/03/11 16:53:20;;;;;;;1.80;1.42;;;20.30;41.90;;;;;;4987911;28;20198;-70
2023/03/11 16:55:48;;;;;;;1.50;1.40;;;20.30;41.90;;;;;;4990764;28;20257;-70
2023/03/11 16:58:15;;;;;;;1.95;1.60;;;20.30;41.90;;;;;;4991105;28;20249;-71
2023/03/11 17:00:42;;;;;;;1.98;1.60;;;20.30;41.90;;;;;;4990928;28;20741;-73
2023/03/11 17:03:13;;;;;;;6.13;1.70;;;20.30;42.00;;;;;;4990975;28;20206;-72
2023/03/11 17:05:40;;;;;;;3.97;1.92;;;20.30;42.20;;;;;;4991738;28;20686;-72
2023/03/11 17:08:07;;;;;;;10.52;1.90;;;20.30;42.20;;;;;;4994868;28;20209;-72
2023/03/11 17:10:36;;;;;;;2.28;1.75;;;20.20;42.10;;;;;;4992606;28;20265;-71
2023/03/11 17:13:04;;;;;;;4.68;1.70;;;20.30;42.30;;;;;;4995536;28;20300;-71
2023/03/11 17:15:33;;;;;;;2.92;1.63;;;20.30;42.20;;;;;;4995403;28;20217;-72
2023/03/11 17:18:00;;;;;;;3.97;1.80;;;20.20;42.10;;;;;;4995169;28;20230;-71
2023/03/11 17:20:29;;;;;;;6.05;1.70;;;20.20;42.10;;;;;;4994116;28;20237;-71
2023/03/11 17:22:56;;;;;;;4.18;1.35;;;20.20;42.10;;;;;;4993887;28;20237;-71
2023/03/11 17:25:23;;;;;;;2.70;1.98;;;20.20;42.10;;;;;;4995293;28;20214;-71
2023/03/11 17:27:50;;;;;;;2.17;1.65;;;20.20;42.10;;;;;;4995413;28;20256;-71
2023/03/11 17:30:18;;;;;;;2.08;1.60;;;20.20;42.10;;;;;;4994895;28;20222;-71
2023/03/11 17:32:46;;;;;;;2.55;1.52;;;20.20;42.20;;;;;;4995231;28;20193;-71
2023/03/11 17:35:13;;;;;;;3.30;1.63;;;20.10;42.10;;;;;;4994708;28;20218;-71
2023/03/11 17:37:41;;;;;;;2.30;1.65;;;20.10;42.10;;;;;;4994785;28;20201;-71
2023/03/11 17:40:09;;;;;;;4.47;1.83;;;20.20;42.10;;;;;;4994919;28;20218;-71
2023/03/11 17:42:39;;;;;;;5.40;2.03;;;20.10;42.10;;;;;;4994816;28;20648;-71
2023/03/11 17:45:07;;;;;;;2.38;1.60;;;20.20;42.10;;;;;;4994613;28;20190;-71
2023/03/11 17:47:35;;;;;;;1.80;1.70;;;20.10;42.10;;;;;;4994523;28;20611;-71
2023/03/11 17:50:03;;;;;;;1.88;1.65;;;20.10;42.10;;;;;;4993362;28;20297;-71
2023/03/11 17:52:30;;;;;;;2.38;2.00;;;20.10;42.10;;;;;;4994854;28;20460;-71
2023/03/11 17:54:58;;;;;;;2.10;1.70;;;20.10;42.10;;;;;;4994368;28;20548;-71
2023/03/11 17:57:25;;;;;;;5.32;1.85;;;20.10;42.10;;;;;;4994743;28;20194;-71
2023/03/11 17:59:53;;;;;;;2.28;1.80;;;20.10;42.10;;;;;;4994190;28;20260;-71
2023/03/11 18:02:20;;;;;;;2.78;2.20;;;20.10;42.00;;;;;;4994607;28;20276;-71
2023/03/11 18:04:51;;;;;;;2.67;2.10;;;20.10;42.10;;;;;;4993478;28;20194;-71
2023/03/11 18:07:21;;;;;;;3.83;2.28;;;20.10;42.10;;;;;;4991894;28;20575;-71
2023/03/11 18:09:51;;;;;;;3.13;2.00;;;20.10;42.10;;;;;;4994311;28;20571;-71
2023/03/11 18:12:20;;;;;;;3.08;2.58;;;20.10;42.10;;;;;;4994000;28;20296;-71
2023/03/11 18:14:47;;;;;;;3.72;1.92;;;20.10;42.00;;;;;;4994727;28;20238;-71
2023/03/11 18:17:14;;;;;;;2.70;2.17;;;20.10;42.00;;;;;;4994641;28;20221;-71
2023/03/11 18:19:41;;;;;;;3.78;2.33;;;20.10;42.00;;;;;;4994265;28;20194;-71
2023/03/11 18:22:08;;;;;;;2.38;1.85;;;20.00;42.00;;;;;;4994167;28;20218;-71
2023/03/11 18:24:35;;;;;;;2.38;2.08;;;20.10;42.10;;;;;;4994266;28;20193;-71
2023/03/11 18:27:02;;;;;;;2.95;2.20;;;20.10;42.10;;;;;;4993784;28;20222;-71
2023/03/11 18:29:31;;;;;;;4.25;2.35;;;20.10;42.10;;;;;;4993877;28;20194;-71
2023/03/11 18:31:58;;;;;;;4.40;2.17;;;20.10;42.10;;;;;;4994018;28;20245;-71
2023/03/11 18:34:25;;;;;;;4.95;2.10;;;20.00;42.00;;;;;;4993920;28;20193;-71
2023/03/11 18:36:52;;;;;;;3.83;2.55;;;20.00;42.00;;;;;;4993931;28;20221;-71
2023/03/11 18:39:19;;;;;;;3.72;2.30;;;20.10;42.10;;;;;;4994321;28;20188;-71
2023/03/11 18:41:47;;;;;;;3.95;2.50;;;20.00;42.00;;;;;;4993483;28;20289;-71
2023/03/11 18:44:14;;;;;;;5.43;2.60;;;20.00;42.10;;;;;;4993844;28;20190;-71
2023/03/11 18:46:42;;;;;;;4.55;2.50;;;20.00;42.10;;;;;;4993451;28;20269;-71
2023/03/11 18:49:12;;;;;;;6.40;2.25;;;20.00;42.10;;;;;;4993506;28;20237;-71
2023/03/11 18:51:39;;;;;;;4.35;2.67;;;20.00;42.10;;;;;;4993650;28;20280;-71
2023/03/11 18:54:07;;;;;;;4.82;2.70;;;20.00;42.10;;;;;;4993658;28;20244;-71
2023/03/11 18:56:34;;;;;;;4.25;2.47;;;20.00;42.10;;;;;;4993281;28;20248;-71
2023/03/11 18:59:01;;;;;;;6.43;2.40;;;20.00;42.10;;;;;;4993286;28;20648;-71
2023/03/11 19:01:29;;;;;;;6.18;2.55;;;20.00;42.10;;;;;;4993331;28;20300;-71
2023/03/11 19:03:59;;;;;;;6.75;2.50;;;20.00;42.20;;;;;;4993547;28;20206;-71
2023/03/11 19:06:27;;;;;;;4.88;2.70;;;20.00;42.20;;;;;;4993362;28;20221;-71
2023/03/11 19:08:55;;;;;;;5.43;2.50;;;20.00;42.20;;;;;;4993180;28;20217;-71
2023/03/11 19:11:25;;;;;;;8.23;2.88;;;20.00;42.20;;;;;;4992744;28;20241;-71
2023/03/11 19:13:52;;;;;;;7.75;2.85;;;20.00;42.20;;;;;;4992864;28;20435;-71
2023/03/11 19:16:22;;;;;;;5.57;2.80;;;20.00;42.30;;;;;;4993032;28;20218;-71
2023/03/11 19:18:50;;;;;;;7.65;3.08;;;20.00;42.30;;;;;;4992627;28;20216;-71
2023/03/11 19:21:18;;;;;;;7.78;3.40;;;19.90;42.20;;;;;;4992004;28;20233;-71
2023/03/11 19:23:47;;;;;;;10.00;3.60;;;20.00;42.40;;;;;;4992920;28;20315;-71
2023/03/11 19:26:15;;;;;;;14.48;3.63;;;19.90;42.30;;;;;;4992093;28;20226;-71
2023/03/11 19:28:42;;;;;;;6.47;2.90;;;19.90;42.40;;;;;;4993224;28;20287;-71
2023/03/11 19:31:09;;;;;;;11.00;3.25;;;19.90;42.40;;;;;;4975915;28;20225;-71
2023/03/11 19:33:36;;;;;;;10.52;3.22;;;19.90;42.40;;;;;;4992746;28;20630;-71
2023/03/11 19:36:05;;;;;;;7.20;3.05;;;19.90;42.50;;;;;;4992716;28;20722;-71
2023/03/11 19:38:34;;;;;;;8.95;3.20;;;19.80;42.50;;;;;;4993036;28;20204;-71
2023/03/11 19:41:02;;;;;;;10.98;3.17;;;19.80;42.60;;;;;;4991531;28;20692;-71
2023/03/11 19:43:30;;;;;;;13.27;4.00;;;19.80;42.70;;;;;;4993013;28;20607;-71
2023/03/11 19:45:58;;;;;;;13.18;3.75;;;19.80;42.70;;;;;;4992850;28;20277;-71
2023/03/11 19:48:25;;;;;;;14.40;4.32;;;19.80;42.80;;;;;;4992943;28;20194;-71
2023/03/11 19:50:52;;;;;;;11.70;3.50;;;19.70;42.70;;;;;;4992568;28;20225;-71
2023/03/11 19:53:21;;;;;;;15.32;4.55;;;19.70;42.80;;;;;;4992650;28;20190;-71
2023/03/11 19:55:51;;;;;;;16.67;4.22;;;19.70;42.80;;;;;;4992998;28;20228;-71
2023/03/11 19:58:19;;;;;;;17.92;4.10;;;19.70;42.90;;;;;;4992528;28;20237;-71
2023/03/11 20:00:46;;;;;;;13.60;3.88;;;19.70;43.00;;;;;;4991287;28;20696;-71
2023/03/11 20:03:14;;;;;;;14.23;3.97;;;19.70;43.00;;;;;;4992887;28;20274;-71
2023/03/11 20:05:43;;;;;;;14.70;4.35;;;19.70;43.70;;;;;;4992806;28;20221;-71
2023/03/11 20:08:12;;;;;;;16.65;4.20;;;19.70;43.20;;;;;;4992467;28;20609;-71
2023/03/11 20:10:40;;;;;;;14.05;4.18;;;19.60;43.10;;;;;;4992382;28;20249;-71
2023/03/11 20:13:09;;;;;;;15.20;4.28;;;19.60;43.20;;;;;;4992861;28;20319;-71
2023/03/11 20:15:37;;;;;;;15.00;4.28;;;19.60;43.30;;;;;;4992883;28;20353;-71
2023/03/11 20:18:05;;;;;;;19.15;5.45;;;19.60;43.30;;;;;;4992658;28;20236;-71
2023/03/11 20:20:33;;;;;;;15.52;4.45;;;19.60;43.40;;;;;;4992273;28;20284;-71
2023/03/11 20:23:00;;;;;;;14.50;4.40;;;19.50;43.40;;;;;;4992705;28;20198;-71
2023/03/11 20:25:31;;;;;;;18.55;4.32;;;19.50;43.50;;;;;;4992732;28;20217;-71
2023/03/11 20:27:58;;;;;;;17.17;4.68;;;19.50;43.60;;;;;;4992271;28;20197;-71
2023/03/11 20:30:27;;;;;;;15.25;4.25;;;19.50;43.60;;;;;;4993883;28;20313;-71
2023/03/11 20:32:54;;;;;;;17.67;4.72;;;19.50;43.60;;;;;;4996253;28;20194;-71
2023/03/11 20:35:22;;;;;;;16.48;5.00;;;19.40;43.70;;;;;;4994675;28;20594;-71
2023/03/11 20:37:49;;;;;;;20.50;5.00;;;19.40;43.80;;;;;;4996239;28;20186;-71
2023/03/11 20:40:18;;;;;;;20.30;5.00;;;19.40;43.90;;;;;;4995981;28;20252;-71
2023/03/11 20:42:46;;;;;;;16.42;4.75;;;19.40;43.90;;;;;;4996149;28;20193;-71
2023/03/11 20:45:14;;;;;;;22.23;5.13;;;19.40;44.00;;;;;;4995721;28;20245;-71
2023/03/11 20:47:43;;;;;;;19.58;5.00;;;19.40;44.10;;;;;;4996032;28;20194;-71
2023/03/11 20:50:12;;;;;;;20.50;5.93;;;19.40;44.10;;;;;;4994508;28;20197;-71
2023/03/11 20:52:39;;;;;;;20.50;4.63;;;19.40;44.10;;;;;;4995899;28;20194;-71
2023/03/11 20:55:08;;;;;;;16.27;4.32;;;19.30;44.10;;;;;;4995866;28;20198;-71
2023/03/11 20:57:36;;;;;;;19.15;4.82;;;19.30;44.10;;;;;;4995507;28;20257;-71
2023/03/11 21:00:07;;;;;;;19.70;4.65;;;19.30;44.30;;;;;;4995792;28;20190;-71
2023/03/11 21:02:34;;;;;;;19.92;4.85;;;19.30;44.40;;;;;;4995624;28;20214;-71
2023/03/11 21:05:02;;;;;;;21.90;4.82;;;19.20;44.20;;;;;;4995693;28;20194;-71
2023/03/11 21:07:30;;;;;;;22.00;5.57;;;19.20;44.40;;;;;;4995759;28;20217;-71
2023/03/11 21:09:57;;;;;;;19.20;4.95;;;19.30;44.50;;;;;;4995264;28;20194;-71
2023/03/11 21:12:24;;;;;;;23.45;5.28;;;19.20;44.50;;;;;;4995101;28;20237;-72
2023/03/11 21:14:51;;;;;;;20.08;5.38;;;19.20;44.60;;;;;;4995710;28;20280;-71
2023/03/11 21:17:18;;;;;;;25.30;5.05;;;19.20;44.60;;;;;;4995700;28;20262;-71
2023/03/11 21:19:45;;;;;;;19.35;5.07;;;19.20;44.70;;;;;;4995129;28;20221;-71
2023/03/11 21:22:14;;;;;;;20.45;5.25;;;19.10;44.70;;;;;;4995334;28;20230;-71
2023/03/11 21:24:41;;;;;;;21.08;6.22;;;19.10;44.70;;;;;;4995394;28;20191;-71
2023/03/11 21:27:08;;;;;;;21.92;5.28;;;19.20;44.90;;;;;;4995423;28;20264;-71
2023/03/11 21:29:36;;;;;;;24.83;5.35;;;19.10;44.80;;;;;;4994907;28;20244;-71
2023/03/11 21:32:03;;;;;;;27.13;5.95;;;19.10;44.90;;;;;;4995082;28;20918;-71
2023/03/11 21:34:30;;;;;;;24.30;5.65;;;19.10;45.00;;;;;;4995119;28;20191;-71
2023/03/11 21:36:57;;;;;;;21.40;5.35;;;19.10;45.00;;;;;;4995017;28;20626;-71
2023/03/11 21:39:26;;;;;;;26.70;5.97;;;19.10;45.20;;;;;;4994805;28;20699;-71
2023/03/11 21:41:55;;;;;;;22.92;5.43;;;19.10;45.30;;;;;;4994538;28;20287;-71
2023/03/11 21:44:22;;;;;;;21.90;4.95;;;19.10;45.30;;;;;;4994706;28;20201;-71
2023/03/11 21:46:49;;;;;;;25.70;5.10;;;19.10;45.20;;;;;;4993747;28;20418;-71
2023/03/11 21:49:16;;;;;;;22.08;5.18;;;19.10;45.30;;;;;;4994915;28;20202;-71
2023/03/11 21:51:43;;;;;;;23.08;5.72;;;19.00;45.30;;;;;;4995003;28;20253;-71
2023/03/11 21:54:11;;;;;;;27.65;6.05;;;19.10;45.40;;;;;;4994416;28;20711;-71
2023/03/11 21:56:40;;;;;;;25.33;6.32;;;19.00;46.00;;;;;;4994796;28;20301;-71
2023/03/11 21:59:07;;;;;;;25.17;4.93;;;19.00;45.30;;;;;;4994371;28;20253;-71
2023/03/11 22:01:34;;;;;;;26.27;5.47;;;19.00;45.30;;;;;;4994593;28;20317;-71
2023/03/11 22:04:02;;;;;;;25.08;5.68;;;19.00;45.30;;;;;;4994655;28;20194;-71
2023/03/11 22:06:32;;;;;;;23.05;5.63;;;19.00;45.40;;;;;;4994776;28;20214;-71
2023/03/11 22:08:59;;;;;;;24.20;5.28;;;19.00;45.40;;;;;;4993402;28;20197;-71
2023/03/11 22:11:26;;;;;;;20.27;5.35;;;18.90;45.30;;;;;;4994143;28;20233;-71
2023/03/11 22:13:56;;;;;;;26.30;6.03;;;19.00;45.40;;;;;;4994782;28;20201;-71
2023/03/11 22:16:24;;;;;;;23.10;5.53;;;18.90;45.30;;;;;;4993431;28;20284;-71
2023/03/11 22:18:51;;;;;;;25.15;6.13;;;18.90;45.30;;;;;;4994393;28;20269;-71
2023/03/11 22:21:20;;;;;;;27.05;5.50;;;18.90;45.40;;;;;;4994029;28;20782;-71
2023/03/11 22:23:48;;;;;;;29.40;6.05;;;18.90;45.40;;;;;;4993937;28;20190;-71
2023/03/11 22:26:15;;;;;;;22.70;6.10;;;18.90;45.50;;;;;;4994050;28;20224;-71
2023/03/11 22:28:42;;;;;;;25.10;4.80;;;18.90;45.50;;;;;;4994262;28;20189;-71
2023/03/11 22:31:13;;;;;;;25.05;5.45;;;18.90;45.60;;;;;;4994037;28;20292;-71
2023/03/11 22:33:41;;;;;;;24.25;5.97;;;18.90;45.80;;;;;;4993791;28;20668;-71
2023/03/11 22:36:08;;;;;;;23.40;5.70;;;18.90;45.70;;;;;;4994050;28;20217;-71
2023/03/11 22:38:36;;;;;;;25.92;5.38;;;18.90;45.60;;;;;;4993966;28;20639;-71
2023/03/11 22:41:06;;;;;;;26.52;5.93;;;18.90;45.80;;;;;;4993670;28;20729;-71
2023/03/11 22:43:33;;;;;;;26.23;5.55;;;18.90;45.80;;;;;;4992435;28;20687;-71
2023/03/11 22:46:00;;;;;;;21.10;4.88;;;18.90;45.90;;;;;;4993761;28;20221;-71
2023/03/11 22:48:29;;;;;;;25.25;5.43;;;18.90;45.90;;;;;;4993780;28;20186;-71
2023/03/11 22:50:56;;;;;;;28.85;5.88;;;18.80;46.00;;;;;;4993301;28;20226;-71
2023/03/11 22:53:24;;;;;;;27.00;5.90;;;18.80;45.80;;;;;;4992757;28;20680;-71
2023/03/11 22:55:52;;;;;;;26.77;5.72;;;18.80;46.00;;;;;;4993382;28;20724;-71
2023/03/11 22:58:19;;;;;;;26.55;5.65;;;18.80;46.00;;;;;;4993509;28;20186;-71
2023/03/11 23:00:46;;;;;;;24.42;6.32;;;18.80;46.10;;;;;;4993238;28;20272;-71
2023/03/11 23:03:14;;;;;;;28.63;6.40;;;18.80;46.10;;;;;;4993459;28;20285;-71
2023/03/11 23:05:44;;;;;;;25.88;5.75;;;18.80;46.20;;;;;;4993442;28;20283;-71
2023/03/11 23:08:13;;;;;;;19.15;5.20;;;18.80;46.20;;;;;;4993477;28;20193;-71
2023/03/11 23:10:40;;;;;;;21.25;4.95;;;18.80;46.30;;;;;;4992699;28;20280;-71
2023/03/11 23:13:08;;;;;;;30.15;6.13;;;18.80;46.30;;;;;;4993154;28;20296;-71
2023/03/11 23:15:35;;;;;;;21.75;5.53;;;18.70;46.30;;;;;;4993391;28;20198;-71
2023/03/11 23:18:02;;;;;;;27.50;6.82;;;18.70;46.20;;;;;;4993399;28;20201;-71
2023/03/11 23:20:29;;;;;;;29.48;6.05;;;18.70;46.30;;;;;;4993229;28;20197;-71
2023/03/11 23:22:58;;;;;;;27.05;6.07;;;18.70;46.30;;;;;;4993072;28;20273;-71
2023/03/11 23:25:25;;;;;;;28.10;5.57;;;18.70;46.30;;;;;;4991922;28;20194;-71
2023/03/11 23:27:52;;;;;;;29.27;6.45;;;18.70;46.30;;;;;;4992860;28;20248;-71
2023/03/11 23:30:19;;;;;;;24.08;5.72;;;18.70;46.50;;;;;;4992619;28;20186;-71
2023/03/11 23:32:47;;;;;;;24.88;5.85;;;18.70;46.40;;;;;;4992811;28;20197;-71
2023/03/11 23:35:14;;;;;;;24.67;5.53;;;18.70;46.50;;;;;;4993048;28;20194;-71
2023/03/11 23:37:41;;;;;;;20.58;5.68;;;18.70;47.10;;;;;;4993165;28;20218;-71
2023/03/11 23:40:11;;;;;;;26.45;6.57;;;18.60;46.40;;;;;;4975040;28;20202;-71
2023/03/11 23:42:38;;;;;;;25.60;5.47;;;18.70;46.50;;;;;;4993133;28;20233;-71
2023/03/11 23:45:06;;;;;;;23.42;5.35;;;18.70;47.10;;;;;;4993023;28;20194;-71
2023/03/11 23:47:33;;;;;;;25.38;6.18;;;18.60;46.40;;;;;;4992498;28;20268;-71
2023/03/11 23:50:01;;;;;;;27.88;5.57;;;18.70;46.60;;;;;;4992980;28;20244;-71
2023/03/11 23:52:28;;;;;;;24.90;6.07;;;18.60;46.40;;;;;;4992870;28;20217;-71
2023/03/11 23:54:55;;;;;;;25.95;5.82;;;18.60;46.50;;;;;;4992585;28;20668;-71
2023/03/11 23:57:24;;;;;;;23.73;5.95;;;18.70;46.60;;;;;;4993093;28;20276;-71
2023/03/11 23:59:51;;;;;;;26.10;6.20;;;18.60;46.60;;;;;;4992892;28;20280;-71
